Time;durP1;ratioP1;P1;durP2;ratioP2;P2;SDS_P1;SDS_P2;PMS_P1;PMS_P2;Temp;Humidity;BMP_temperature;BMP_pressure;BME280_temperature;BME280_humidity;BME280_pressure;Samples;Min_cycle;Max_cycle;Signal;HPM_P1;HPM_P2
2023/10/09 00:02:43;;;;;;;1.20;0.77;;;;;;;7.45;61.76;100944.38;6191710;28;20046;-72
2023/10/09 00:08:50;;;;;;;0.98;0.52;;;;;;;7.31;62.72;100949.19;6193486;28;20510;-72
2023/10/09 00:12:00;;;;;;;1.35;0.70;;;;;;;7.14;63.76;100936.78;6192518;28;20444;-71
2023/10/09 00:15:10;;;;;;;3.08;1.02;;;;;;;7.30;62.31;100926.75;6182454;28;20046;-71
2023/10/09 00:18:12;;;;;;;2.38;0.65;;;;;;;7.91;61.36;100926.34;6187954;28;20047;-72
2023/10/09 00:21:20;;;;;;;2.05;0.70;;;;;;;8.55;58.30;100926.59;6188771;28;20054;-71
2023/10/09 00:24:26;;;;;;;5.65;0.80;;;;;;;7.39;62.04;100924.69;6189038;28;20049;-71
2023/10/09 00:27:31;;;;;;;1.60;1.10;;;;;;;7.03;63.27;100931.94;6193118;28;20085;-71
2023/10/09 00:30:32;;;;;;;4.75;0.95;;;;;;;6.80;64.13;100936.13;6191816;28;20434;-71
2023/10/09 00:33:34;;;;;;;1.65;0.90;;;;;;;6.59;66.20;100932.44;6187722;28;20050;-71
2023/10/09 00:36:49;;;;;;;1.80;0.70;;;;;;;6.60;65.68;100918.56;6188552;28;20491;-71
2023/10/09 00:39:58;;;;;;;2.15;0.60;;;;;;;6.51;66.78;100918.88;6192548;28;20060;-72
2023/10/09 00:43:04;;;;;;;1.77;0.70;;;;;;;6.44;66.83;100918.22;6179912;28;20398;-72
2023/10/09 00:49:23;;;;;;;0.73;0.60;;;;;;;6.30;67.84;100909.13;6184835;28;20051;-71
2023/10/09 00:52:39;;;;;;;1.65;0.70;;;;;;;6.22;68.94;100910.22;6190481;28;20053;-71
2023/10/09 00:55:45;;;;;;;3.65;0.70;;;;;;;6.18;68.45;100905.16;6183522;28;20452;-71
2023/10/09 00:58:49;;;;;;;0.50;0.47;;;;;;;6.09;69.07;100902.84;6191323;28;20451;-71
2023/10/09 01:01:56;;;;;;;1.15;0.80;;;;;;;6.12;68.82;100889.81;6195743;28;20065;-71
2023/10/09 01:04:57;;;;;;;3.28;0.95;;;;;;;6.09;69.08;100897.66;6194571;28;20038;-71
2023/10/09 01:07:58;;;;;;;3.38;0.75;;;;;;;5.98;69.94;100891.03;6195883;28;20058;-71
2023/10/09 01:11:09;;;;;;;0.60;0.45;;;;;;;5.90;70.27;100898.13;6195582;28;20058;-72
2023/10/09 01:17:18;;;;;;;1.52;0.85;;;;;;;5.83;71.38;100900.06;6194432;28;20056;-71
2023/10/09 01:20:29;;;;;;;2.35;0.73;;;;;;;5.63;72.90;100907.53;6191947;28;20050;-71
2023/10/09 01:23:30;;;;;;;0.95;0.60;;;;;;;5.63;72.56;100907.53;6194514;28;20081;-71
2023/10/09 01:26:39;;;;;;;0.95;0.80;;;;;;;5.66;73.06;100915.19;6194603;28;20042;-71
2023/10/09 01:29:41;;;;;;;1.38;0.70;;;;;;;5.73;72.98;100915.91;6187327;28;20054;-71
2023/10/09 01:32:45;;;;;;;2.35;0.93;;;;;;;5.70;72.38;100919.41;6195015;28;20050;-71
2023/10/09 01:35:50;;;;;;;1.58;0.93;;;;;;;5.66;73.48;100915.19;6194190;28;20043;-72
2023/10/09 01:38:53;;;;;;;1.00;0.73;;;;;;;5.59;73.83;100913.66;6194950;28;20145;-72
2023/10/09 01:41:58;;;;;;;0.98;0.50;;;;;;;5.56;73.55;100913.75;6195294;28;20107;-71
2023/10/09 01:45:26;;;;;;;0.68;0.60;;;;;;;5.57;73.33;100918.88;6194298;28;20425;-71
2023/10/09 01:48:24;;;;;;;1.90;0.90;;;;;;;5.50;73.86;100919.94;6194793;28;20062;-71
2023/10/09 01:51:25;;;;;;;3.47;1.20;;;;;;;5.44;73.11;100908.00;6195963;28;20053;-71
2023/10/09 01:54:38;;;;;;;1.40;0.63;;;;;;;5.34;72.72;100916.91;6195517;28;20050;-72
2023/10/09 01:57:40;;;;;;;1.27;0.73;;;;;;;5.35;74.59;100912.56;6195121;28;20058;-72
2023/10/09 02:00:49;;;;;;;2.33;1.00;;;;;;;5.35;73.95;100915.16;6195524;28;20051;-71
2023/10/09 02:03:52;;;;;;;3.72;1.30;;;;;;;5.24;74.52;100913.69;6196396;28;20054;-71
2023/10/09 02:06:53;;;;;;;1.10;0.73;;;;;;;5.28;74.62;100919.63;6196545;28;20046;-71
2023/10/09 02:09:55;;;;;;;3.97;0.90;;;;;;;5.28;75.61;100927.41;6194367;28;20054;-71
2023/10/09 02:12:57;;;;;;;;;;;;;;;5.29;76.98;100918.75;6195724;28;20047;-71
2023/10/09 02:16:12;;;;;;;2.17;1.00;;;;;;;5.36;76.13;100917.72;6196273;28;19922;-71
2023/10/09 02:19:29;;;;;;;1.65;0.88;;;;;;;5.21;76.77;100916.38;6297158;28;20432;-71
2023/10/09 02:22:34;;;;;;;1.33;0.73;;;;;;;5.23;76.89;100903.41;6194638;28;20490;-71
2023/10/09 02:25:35;;;;;;;5.00;1.00;;;;;;;5.30;76.47;100910.09;6195840;28;20046;-71
2023/10/09 02:28:36;;;;;;;2.70;1.08;;;;;;;5.24;77.24;100916.28;6194337;28;20494;-71
2023/10/09 02:31:40;;;;;;;2.53;1.17;;;;;;;5.21;78.70;100918.13;6194775;28;20058;-70
2023/10/09 02:34:46;;;;;;;1.30;0.95;;;;;;;5.25;80.26;100912.81;6193978;28;20050;-71
2023/10/09 02:37:49;;;;;;;2.35;1.10;;;;;;;5.45;79.69;100907.09;6296335;28;20054;-71
2023/10/09 02:44:10;;;;;;;3.38;0.90;;;;;;;5.53;75.80;100908.66;6195896;28;20050;-71
2023/10/09 02:47:24;;;;;;;3.30;0.90;;;;;;;5.43;75.86;100905.44;6195356;28;20051;-71
2023/10/09 02:50:28;;;;;;;2.28;0.85;;;;;;;5.58;77.21;100904.19;6194668;28;20050;-71
2023/10/09 02:53:34;;;;;;;2.03;0.98;;;;;;;5.59;77.87;100901.56;6193920;28;20119;-72
2023/10/09 02:56:37;;;;;;;4.78;0.80;;;;;;;5.59;78.04;100908.50;6195438;28;20050;-71
2023/10/09 02:59:41;;;;;;;3.75;1.25;;;;;;;5.59;78.05;100895.56;6189350;28;20046;-71
2023/10/09 03:02:42;;;;;;;4.05;1.33;;;;;;;5.57;78.02;100892.16;6189678;28;20058;-72
2023/10/09 03:05:44;;;;;;;1.13;0.75;;;;;;;5.60;77.54;100894.63;6192268;28;20150;-72
2023/10/09 03:08:47;;;;;;;1.42;0.55;;;;;;;5.60;77.99;100887.75;6191927;28;20053;-72
2023/10/09 03:12:01;;;;;;;10.18;1.00;;;;;;;5.57;79.28;100884.38;6195720;28;20054;-72
2023/10/09 03:15:08;;;;;;;1.73;1.10;;;;;;;5.52;78.87;100889.69;6194001;28;20137;-72
2023/10/09 03:18:09;;;;;;;1.73;0.70;;;;;;;5.52;78.54;100887.09;6192385;28;20494;-72
2023/10/09 03:21:10;;;;;;;2.67;1.02;;;;;;;5.42;79.46;100876.13;6191244;28;20061;-71
2023/10/09 03:24:11;;;;;;;1.35;0.75;;;;;;;5.42;79.42;100876.13;6192907;28;20091;-71
2023/10/09 03:27:14;;;;;;;2.70;1.23;;;;;;;5.33;80.29;100873.78;6189945;28;20183;-71
2023/10/09 03:30:22;;;;;;;3.83;1.23;;;;;;;5.42;80.21;100883.91;6191929;28;20050;-72
2023/10/09 03:33:27;;;;;;;1.95;1.10;;;;;;;5.41;79.32;100889.13;6192499;28;20054;-72
2023/10/09 03:36:37;;;;;;;1.02;0.75;;;;;;;5.39;79.06;100896.06;6190978;28;20398;-72
2023/10/09 03:39:41;;;;;;;3.25;1.30;;;;;;;5.52;80.79;100876.75;6191862;28;20062;-71
2023/10/09 03:42:42;;;;;;;2.00;0.95;;;;;;;5.54;81.15;100867.19;6189971;28;20042;-72
2023/10/09 03:45:54;;;;;;;2.63;1.38;;;;;;;5.49;81.25;100871.63;6188981;28;20050;-72
2023/10/09 03:48:57;;;;;;;3.80;1.10;;;;;;;5.38;82.00;100871.09;6190351;28;20482;-71
2023/10/09 03:51:59;;;;;;;4.45;1.30;;;;;;;5.40;79.90;100890.84;6191765;28;20863;-70
2023/10/09 03:55:00;;;;;;;3.35;1.17;;;;;;;5.49;80.45;100886.31;6193056;28;20039;-71
2023/10/09 03:58:04;;;;;;;4.97;1.17;;;;;;;5.50;81.05;100885.44;6190283;28;20102;-71
2023/10/09 04:01:22;;;;;;;1.70;1.13;;;;;;;5.48;81.07;100888.06;6187819;28;20080;-72
2023/10/09 04:04:23;;;;;;;1.95;1.30;;;;;;;5.51;80.70;100898.34;6194287;28;20050;-72
2023/10/09 04:07:25;;;;;;;6.15;1.15;;;;;;;5.47;79.83;100875.16;6194561;28;20046;-72
2023/10/09 04:10:42;;;;;;;1.92;0.98;;;;;;;5.56;80.20;100875.78;6192548;28;20439;-72
2023/10/09 04:13:49;;;;;;;2.70;0.90;;;;;;;5.67;80.04;100869.47;6190555;28;20078;-71
2023/10/09 04:17:32;;;;;;;1.48;0.82;;;;;;;5.69;80.97;100863.34;6294317;28;20051;-72
2023/10/09 04:23:35;;;;;;;8.73;1.40;;;;;;;5.54;77.45;100885.31;6193799;28;20050;-72
2023/10/09 04:26:37;;;;;;;4.47;1.15;;;;;;;5.55;78.10;100889.59;6192921;28;20057;-72
2023/10/09 04:29:38;;;;;;;4.45;1.65;;;;;;;5.58;79.15;100865.34;6193977;28;20050;-71
2023/10/09 04:32:40;;;;;;;2.60;1.13;;;;;;;5.61;80.05;100855.78;6194762;28;20053;-72
2023/10/09 04:35:45;;;;;;;2.60;1.40;;;;;;;5.68;78.76;100873.72;6197141;28;20053;-72
2023/10/09 04:42:26;;;;;;;4.10;1.13;;;;;;;5.57;77.01;100868.84;6198112;28;20486;-72
2023/10/09 04:48:46;;;;;;;4.15;1.73;;;;;;;5.65;77.65;100885.03;6198193;28;20065;-72
2023/10/09 04:52:01;;;;;;;4.00;2.03;;;;;;;5.69;78.01;100883.22;6197849;28;20077;-72
2023/10/09 04:55:15;;;;;;;7.00;2.70;;;;;;;5.75;77.75;100868.34;6198517;28;20095;-72
2023/10/09 04:58:23;;;;;;;3.90;2.15;;;;;;;5.67;76.66;100866.88;6197197;28;20066;-72
2023/10/09 05:01:35;;;;;;;7.55;2.35;;;;;;;5.69;77.21;100858.16;6195734;28;20050;-72
2023/10/09 05:07:54;;;;;;;2.88;1.75;;;;;;;5.74;75.83;100861.44;6197779;28;20250;-72
2023/10/09 05:14:12;;;;;;;3.20;1.60;;;;;;;5.64;76.32;100862.59;6198124;28;20184;-71
2023/10/09 05:17:16;;;;;;;1.48;1.17;;;;;;;5.66;76.11;100876.34;6196260;28;20058;-72
2023/10/09 05:23:26;;;;;;;3.83;1.27;;;;;;;5.69;77.59;100884.06;6197360;28;20051;-72
2023/10/09 05:29:59;;;;;;;6.00;1.38;;;;;;;5.70;76.48;100872.78;6197031;28;20054;-72
2023/10/09 05:33:45;;;;;;;1.00;0.75;;;;;;;5.68;77.28;100859.03;6197143;28;20589;-72
2023/10/09 05:39:41;;;;;;;1.00;0.88;;;;;;;5.70;73.64;100853.81;6196876;28;20095;-72
2023/10/09 05:42:45;;;;;;;2.63;0.77;;;;;;;5.77;73.32;100850.19;6197207;28;20069;-71
2023/10/09 05:46:35;;;;;;;1.83;0.85;;;;;;;5.77;73.22;100845.84;6195939;28;20050;-72
2023/10/09 05:49:24;;;;;;;2.08;1.02;;;;;;;5.82;72.87;100863.84;6194898;28;20141;-71
2023/10/09 06:12:33;;;;;;;0.73;0.73;;;;;;;6.18;73.47;100876.66;6196551;28;20050;-72
2023/10/09 06:25:26;;;;;;;4.88;2.00;;;;;;;6.80;73.08;100854.88;6196223;28;20053;-72
2023/10/09 06:28:33;;;;;;;5.13;1.60;;;;;;;6.91;72.92;100860.53;6196362;28;20145;-72
2023/10/09 06:31:56;;;;;;;6.45;1.52;;;;;;;7.06;72.01;100860.03;6316398;28;20048;-72
2023/10/09 06:35:21;;;;;;;2.72;1.17;;;;;;;7.09;69.88;100856.47;6322919;28;20043;-72
2023/10/09 06:38:23;;;;;;;2.58;1.50;;;;;;;7.24;71.75;100850.75;6322336;28;20044;-72
2023/10/09 06:41:37;;;;;;;5.05;2.60;;;;;;;7.37;70.98;100846.00;6338725;28;20044;-72
2023/10/09 06:44:53;;;;;;;5.80;3.08;;;;;;;7.57;70.52;100857.44;6322774;28;20450;-72
2023/10/09 06:54:29;;;;;;;3.97;2.75;;;;;;;8.00;67.75;100848.06;6322408;28;20052;-72
2023/10/09 06:57:48;;;;;;;3.95;2.38;;;;;;;8.18;68.83;100851.72;6338134;28;20044;-73
2023/10/09 07:04:18;;;;;;;5.63;2.15;;;;;;;8.50;67.18;100852.25;6322678;28;20055;-72
2023/10/09 07:07:20;;;;;;;3.53;1.45;;;;;;;8.60;66.33;100849.22;6322267;28;20050;-72
2023/10/09 07:10:32;;;;;;;;;;;;;;;8.62;66.48;100856.97;6322959;28;20050;-72
2023/10/09 07:13:36;;;;;;;2.90;1.13;;;;;;;8.63;69.15;100843.06;6321065;28;19927;-72
2023/10/09 07:16:57;;;;;;;34.97;2.42;;;;;;;8.67;69.39;100848.06;6322053;28;20449;-72
2023/10/09 07:20:09;;;;;;;3.10;1.45;;;;;;;8.77;69.69;100848.56;6322040;28;20048;-72
2023/10/09 07:23:13;;;;;;;3.78;1.60;;;;;;;8.81;67.71;100829.31;6322189;28;20052;-72
2023/10/09 07:26:25;;;;;;;6.95;1.23;;;;;;;8.86;66.68;100814.31;6320733;28;20044;-72
2023/10/09 07:29:29;;;;;;;3.30;1.63;;;;;;;8.87;68.38;100820.38;6322291;28;20048;-72
2023/10/09 07:32:32;;;;;;;4.85;1.17;;;;;;;8.85;68.60;100819.59;6321453;28;20044;-72
2023/10/09 07:38:55;;;;;;;;;;;;;;;8.90;66.24;100817.66;6322024;28;20411;-72
2023/10/09 07:42:15;;;;;;;1.65;0.82;;;;;;;8.92;66.14;100820.19;6320497;28;19927;-72
2023/10/09 07:48:25;;;;;;;19.15;10.55;;;;;;;8.94;57.56;100798.41;6321617;28;20055;-72
2023/10/09 07:51:32;;;;;;;11.98;5.45;;;;;;;9.02;60.75;100791.09;6320070;28;20487;-72
2023/10/09 07:54:34;;;;;;;10.18;4.63;;;;;;;8.91;66.95;100788.09;6321267;28;20056;-71
2023/10/09 07:57:38;;;;;;;23.38;6.88;;;;;;;9.09;68.72;100796.88;6321407;28;20073;-72
2023/10/09 08:04:04;;;;;;;19.83;8.38;;;;;;;9.22;68.20;100792.81;6321094;28;20056;-72
2023/10/09 08:07:19;;;;;;;18.88;7.80;;;;;;;9.34;67.84;100775.00;6320945;28;20044;-72
2023/10/09 08:16:41;;;;;;;17.90;4.68;;;;;;;9.36;66.35;100784.41;6320905;28;20102;-72
2023/10/09 08:19:54;;;;;;;10.00;4.07;;;;;;;9.50;66.47;100780.38;6320758;28;20087;-72
2023/10/09 08:22:56;;;;;;;7.43;3.70;;;;;;;9.65;66.70;100770.06;6319326;28;20048;-72
2023/10/09 08:26:12;;;;;;;14.70;5.23;;;;;;;9.76;66.36;100768.75;6319895;28;20079;-72
2023/10/09 08:29:17;;;;;;;13.80;5.53;;;;;;;9.83;67.37;100767.56;6321127;28;20054;-72
2023/10/09 08:32:18;;;;;;;8.93;4.25;;;;;;;9.81;65.12;100772.81;6319751;28;20055;-72
2023/10/09 08:35:29;;;;;;;11.25;3.40;;;;;;;9.78;63.43;100767.78;6336455;28;20040;-72
2023/10/09 08:38:33;;;;;;;6.65;3.30;;;;;;;9.86;62.73;100736.13;6319594;28;20080;-71
2023/10/09 08:41:38;;;;;;;5.70;3.55;;;;;;;9.91;63.54;100741.97;6321381;28;20093;-71
2023/10/09 08:44:44;;;;;;;12.55;4.93;;;;;;;9.83;66.08;100737.13;6320763;28;20112;-72
2023/10/09 08:47:45;;;;;;;14.65;4.35;;;;;;;9.80;68.23;100750.31;6320700;28;20059;-72
2023/10/09 08:50:47;;;;;;;9.77;5.28;;;;;;;9.83;65.83;100737.13;6319438;28;20059;-72
2023/10/09 08:53:48;;;;;;;;;;;;;;;9.83;64.93;100737.13;6320587;28;20060;-72
2023/10/09 08:56:49;;;;;;;10.20;5.68;;;;;;;9.81;67.61;100741.56;6319596;28;20353;-72
2023/10/09 08:59:50;;;;;;;13.20;6.68;;;;;;;9.73;65.09;100748.88;6320382;28;20051;-72
2023/10/09 09:02:53;;;;;;;17.60;6.90;;;;;;;9.78;67.18;100748.66;6336348;28;20048;-72
2023/10/09 09:06:01;;;;;;;8.50;4.20;;;;;;;9.71;67.44;100768.13;6336136;28;20048;-72
2023/10/09 09:09:13;;;;;;;4.90;2.25;;;;;;;9.71;66.05;100768.13;6320756;28;20048;-73
2023/10/09 09:12:15;;;;;;;4.03;2.20;;;;;;;9.65;65.74;100758.81;6336161;28;20052;-73
2023/10/09 09:15:20;;;;;;;4.38;2.08;;;;;;;9.65;65.63;100751.84;6319516;28;20050;-73
2023/10/09 09:18:22;;;;;;;8.32;2.33;;;;;;;9.88;66.77;100739.50;6336283;28;20080;-72
2023/10/09 09:21:22;;;;;;;17.80;8.13;;;;;;;9.81;66.35;100758.97;6323740;28;20407;-72
2023/10/09 09:24:30;;;;;;;29.55;13.90;;;;;;;9.82;68.07;100729.34;6325054;28;20052;-72
2023/10/09 09:27:52;;;;;;;27.00;11.50;;;;;;;9.87;69.37;100702.16;6324682;28;20051;-72
2023/10/09 09:30:54;;;;;;;6.90;4.07;;;;;;;9.92;72.15;100698.50;6323607;28;20515;-72
2023/10/09 09:33:58;;;;;;;8.13;2.28;;;;;;;9.92;71.44;100701.94;6340688;28;20059;-72
2023/10/09 09:36:59;;;;;;;3.28;1.58;;;;;;;9.96;70.74;100703.47;6324560;28;20044;-73
2023/10/09 09:40:14;;;;;;;10.07;2.80;;;;;;;9.91;70.40;100699.44;6324410;28;20473;-73
2023/10/09 09:43:22;;;;;;;4.88;2.47;;;;;;;9.90;70.23;100685.53;6324413;28;20048;-73
2023/10/09 09:46:33;;;;;;;23.15;3.42;;;;;;;9.84;69.35;100668.44;6340385;28;20079;-73
2023/10/09 09:49:38;;;;;;;7.05;2.33;;;;;;;9.83;68.79;100674.56;6340102;28;20097;-71
2023/10/09 09:52:39;;;;;;;11.25;3.42;;;;;;;9.73;68.61;100690.72;6323911;28;20105;-72
2023/10/09 09:55:51;;;;;;;7.15;3.25;;;;;;;9.76;69.14;100699.25;6324062;28;20760;-72
2023/10/09 09:58:53;;;;;;;6.07;2.67;;;;;;;9.65;68.76;100706.69;6324176;28;20048;-72
2023/10/09 10:02:06;;;;;;;14.10;3.55;;;;;;;9.64;70.44;100711.06;6323983;28;20048;-71
2023/10/09 10:05:11;;;;;;;9.95;5.07;;;;;;;9.64;70.80;100710.25;6323755;28;20385;-71
2023/10/09 10:08:22;;;;;;;5.50;3.08;;;;;;;9.64;69.26;100682.41;6323863;28;20083;-72
2023/10/09 10:11:44;;;;;;;6.97;3.10;;;;;;;9.83;71.88;100676.34;6323851;28;20135;-72
2023/10/09 10:15:14;;;;;;;6.93;2.38;;;;;;;9.96;72.86;100666.16;6339422;28;20048;-72
2023/10/09 10:18:19;;;;;;;10.38;2.22;;;;;;;10.06;73.67;100652.59;6323745;28;20048;-72
2023/10/09 10:21:37;;;;;;;3.72;2.13;;;;;;;10.11;72.41;100621.09;6323436;28;20108;-71
2023/10/09 10:24:52;;;;;;;4.88;2.33;;;;;;;10.03;71.01;100618.84;6323507;28;20048;-72
2023/10/09 10:28:28;;;;;;;5.13;2.28;;;;;;;9.94;68.07;100634.94;6323383;28;20048;-71
2023/10/09 10:31:51;;;;;;;3.35;2.13;;;;;;;9.96;67.89;100642.69;6338497;28;20404;-71
2023/10/09 10:34:55;;;;;;;6.70;2.13;;;;;;;9.96;67.25;100638.31;6338953;28;20044;-71
2023/10/09 10:41:17;;;;;;;6.25;3.28;;;;;;;10.05;67.76;100606.59;6323129;28;20131;-72
2023/10/09 10:44:38;;;;;;;5.20;2.83;;;;;;;10.15;67.86;100593.06;6321567;28;20169;-72
2023/10/09 10:47:40;;;;;;;28.50;11.95;;;;;;;10.19;67.86;100603.28;6322850;28;20048;-72
2023/10/09 10:50:45;;;;;;;10.57;4.82;;;;;;;10.19;68.34;100603.28;6322751;28;20052;-72
2023/10/09 10:53:57;;;;;;;9.95;2.80;;;;;;;10.15;68.25;100598.28;6322534;28;20055;-71
2023/10/09 10:56:59;;;;;;;8.85;3.05;;;;;;;10.18;68.85;100604.19;6322624;28;20055;-72
2023/10/09 11:00:13;;;;;;;7.53;2.45;;;;;;;10.14;67.25;100609.66;6321510;28;20048;-71
2023/10/09 11:03:35;;;;;;;4.88;2.30;;;;;;;10.20;66.67;100609.34;6322418;28;20091;-71
2023/10/09 11:06:37;;;;;;;6.53;2.63;;;;;;;10.13;66.85;100598.38;6338009;28;20555;-72
2023/10/09 11:10:10;;;;;;;4.20;2.72;;;;;;;10.20;67.18;100591.09;6322245;28;20054;-72
2023/10/09 11:16:15;;;;;;;17.75;7.53;;;;;;;10.04;67.14;100577.97;6322436;28;20054;-71
2023/10/09 11:22:28;;;;;;;29.95;11.60;;;;;;;9.89;68.09;100559.56;6322062;28;20091;-71
2023/10/09 11:25:30;;;;;;;20.95;7.70;;;;;;;9.97;68.23;100530.53;6321820;28;20070;-71
2023/10/09 11:28:48;;;;;;;11.50;3.60;;;;;;;10.01;69.13;100532.06;6320751;28;20510;-72
2023/10/09 11:32:17;;;;;;;7.57;2.58;;;;;;;10.04;68.71;100534.47;6321710;28;20052;-72
2023/10/09 11:35:27;;;;;;;5.95;2.22;;;;;;;10.06;67.16;100532.66;6321827;28;20052;-72
2023/10/09 11:38:38;;;;;;;5.53;1.77;;;;;;;9.82;63.22;100520.84;6320391;28;20415;-72
2023/10/09 11:41:42;;;;;;;3.92;1.40;;;;;;;9.87;63.95;100517.09;6321516;28;20059;-72
2023/10/09 11:44:55;;;;;;;3.22;1.63;;;;;;;9.93;65.67;100491.66;6336663;28;20056;-72
2023/10/09 11:48:20;;;;;;;5.88;2.78;;;;;;;9.93;65.40;100476.84;6321792;28;20044;-72
2023/10/09 11:51:24;;;;;;;8.40;2.75;;;;;;;9.95;63.56;100472.41;6321630;28;20496;-72
2023/10/09 11:54:31;;;;;;;4.47;2.17;;;;;;;9.95;66.70;100463.75;6320037;28;20420;-72
2023/10/09 11:57:38;;;;;;;6.32;3.00;;;;;;;9.88;64.93;100461.47;6320503;28;20048;-71
2023/10/09 12:00:46;;;;;;;7.55;3.33;;;;;;;9.71;62.95;100464.06;6321273;28;20499;-72
2023/10/09 12:03:49;;;;;;;6.55;2.85;;;;;;;9.73;65.38;100462.22;6320032;28;20056;-72
2023/10/09 12:06:58;;;;;;;5.50;2.63;;;;;;;9.67;63.81;100463.38;6321264;28;20040;-71
2023/10/09 12:09:59;;;;;;;10.68;2.88;;;;;;;9.76;67.04;100476.84;6321238;28;20059;-72
2023/10/09 12:13:04;;;;;;;6.53;2.65;;;;;;;9.75;65.64;100501.25;6321134;28;20048;-72
2023/10/09 12:16:11;;;;;;;5.32;2.83;;;;;;;9.72;66.40;100497.03;6319972;28;20055;-72
2023/10/09 12:19:11;;;;;;;4.65;2.65;;;;;;;9.66;68.69;100492.97;6321121;28;20052;-71
2023/10/09 12:22:16;;;;;;;22.65;4.93;;;;;;;9.73;68.39;100490.06;6336695;28;20557;-72
2023/10/09 12:25:19;;;;;;;4.55;2.30;;;;;;;9.65;65.32;100496.47;6320993;28;20492;-72
2023/10/09 12:28:20;;;;;;;10.68;2.40;;;;;;;9.63;64.98;100503.53;6320898;28;20056;-72
2023/10/09 12:31:21;;;;;;;10.85;2.70;;;;;;;9.63;65.06;100482.69;6320059;28;20558;-72
2023/10/09 12:34:26;;;;;;;9.27;2.33;;;;;;;9.61;68.06;100466.28;6320914;28;20055;-72
2023/10/09 12:37:27;;;;;;;4.50;2.65;;;;;;;9.54;65.89;100438.03;6321041;28;20044;-71
2023/10/09 12:40:30;;;;;;;4.63;2.28;;;;;;;9.52;67.31;100421.66;6320995;28;20051;-71
2023/10/09 12:43:32;;;;;;;6.55;3.05;;;;;;;9.51;68.42;100399.94;6320916;28;20056;-72
2023/10/09 12:46:37;;;;;;;7.30;2.92;;;;;;;9.36;67.76;100385.13;6320871;28;20052;-72
2023/10/09 12:49:40;;;;;;;7.88;2.33;;;;;;;9.36;67.19;100362.50;6320654;28;20419;-73
2023/10/09 12:52:42;;;;;;;9.52;3.80;;;;;;;9.53;67.90;100353.81;6336392;28;20099;-71
2023/10/09 12:55:43;;;;;;;6.82;2.95;;;;;;;9.69;67.56;100351.25;6324479;28;20048;-72
2023/10/09 12:58:52;;;;;;;7.32;2.58;;;;;;;9.64;65.65;100340.25;6341168;28;20548;-72
2023/10/09 13:01:57;;;;;;;43.65;19.42;;;;;;;9.64;65.82;100358.50;6325191;28;20044;-71
2023/10/09 13:04:59;;;;;;;44.25;20.15;;;;;;;9.81;66.64;100353.22;6325071;28;20051;-72
2023/10/09 13:08:01;;;;;;;21.10;8.95;;;;;;;9.81;65.08;100357.59;6325152;28;20079;-72
2023/10/09 13:11:12;;;;;;;22.02;11.25;;;;;;;9.85;64.59;100367.78;6325297;28;20048;-72
2023/10/09 13:14:22;;;;;;;14.80;4.95;;;;;;;9.91;64.66;100377.03;6325012;28;20124;-72
2023/10/09 13:17:26;;;;;;;13.30;6.45;;;;;;;9.89;66.46;100389.31;6324101;28;20052;-71
2023/10/09 13:20:27;;;;;;;8.73;4.20;;;;;;;9.84;66.08;100384.34;6324999;28;20044;-71
2023/10/09 13:23:46;;;;;;;12.20;7.05;;;;;;;9.72;66.36;100368.50;6323877;28;20054;-71
2023/10/09 13:26:51;;;;;;;18.77;6.88;;;;;;;9.97;67.39;100344.59;6340390;28;20040;-71
2023/10/09 13:29:52;;;;;;;12.25;4.30;;;;;;;9.91;65.95;100358.81;6324856;28;20048;-71
2023/10/09 13:32:53;;;;;;;6.68;3.60;;;;;;;9.90;65.10;100354.50;6340360;28;20135;-71
2023/10/09 13:35:55;;;;;;;5.17;3.23;;;;;;;9.75;65.78;100366.56;6340091;28;20052;-72
2023/10/09 13:39:39;;;;;;;7.35;2.60;;;;;;;9.81;66.88;100381.88;6323259;28;20641;-71
2023/10/09 13:42:27;;;;;;;5.20;2.85;;;;;;;9.92;67.00;100383.09;6322396;28;20055;-72
2023/10/09 13:45:28;;;;;;;8.20;3.53;;;;;;;9.85;67.06;100382.59;6324511;28;20400;-72
2023/10/09 13:48:29;;;;;;;6.55;2.70;;;;;;;9.79;67.05;100386.34;6340107;28;20051;-71
2023/10/09 13:51:33;;;;;;;8.87;4.17;;;;;;;9.79;66.09;100388.13;6340021;28;20051;-72
2023/10/09 13:57:37;;;;;;;13.90;7.05;;;;;;;9.86;65.11;100356.44;6324050;28;20052;-72
2023/10/09 14:00:42;;;;;;;14.10;5.00;;;;;;;9.94;64.77;100360.38;6322668;28;20130;-72
2023/10/09 14:03:49;;;;;;;10.57;4.22;;;;;;;9.92;64.23;100347.44;6322602;28;20044;-72
2023/10/09 14:07:01;;;;;;;7.20;3.75;;;;;;;9.87;65.36;100346.84;6321759;28;20048;-72
2023/10/09 14:10:17;;;;;;;6.50;3.13;;;;;;;9.90;67.77;100357.09;6338185;28;20576;-73
2023/10/09 14:13:25;;;;;;;10.90;3.95;;;;;;;9.91;67.46;100366.63;6322476;28;20385;-72
2023/10/09 14:16:32;;;;;;;20.52;8.77;;;;;;;9.93;67.96;100343.09;6323484;28;20098;-72
2023/10/09 14:19:36;;;;;;;9.82;5.07;;;;;;;9.92;67.45;100287.47;6323610;28;20048;-71
2023/10/09 14:22:38;;;;;;;5.55;2.63;;;;;;;9.82;66.26;100321.03;6322150;28;20153;-72
2023/10/09 14:25:43;;;;;;;19.40;6.80;;;;;;;9.85;66.06;100340.88;6323475;28;20139;-72
2023/10/09 14:28:45;;;;;;;20.90;7.18;;;;;;;9.87;68.12;100350.28;6323310;28;20048;-71
2023/10/09 14:31:59;;;;;;;9.23;3.65;;;;;;;9.86;67.95;100351.22;6323092;28;20055;-71
2023/10/09 14:35:00;;;;;;;14.65;5.95;;;;;;;9.96;67.83;100350.72;6323067;28;20058;-71
2023/10/09 14:38:04;;;;;;;24.73;11.70;;;;;;;9.96;70.30;100340.28;6322996;28;20052;-72
2023/10/09 14:41:11;;;;;;;31.02;15.55;;;;;;;9.85;67.80;100339.09;6319062;28;20396;-71
2023/10/09 14:44:16;;;;;;;28.15;16.17;;;;;;;9.74;67.58;100346.66;6193456;28;20050;-72
2023/10/09 14:47:18;;;;;;;19.95;12.93;;;;;;;9.86;70.87;100321.69;6195359;28;20046;-72
2023/10/09 14:50:24;;;;;;;21.83;11.77;;;;;;;9.82;71.39;100330.59;6193722;28;20057;-72
2023/10/09 14:53:27;;;;;;;10.48;5.68;;;;;;;9.65;70.29;100313.25;6195128;28;20062;-72
2023/10/09 14:56:28;;;;;;;11.40;5.88;;;;;;;9.66;68.99;100314.97;6192583;28;20050;-73
2023/10/09 14:59:29;;;;;;;11.30;6.13;;;;;;;9.63;70.51;100315.13;6184541;28;20073;-71
2023/10/09 15:02:31;;;;;;;16.75;5.07;;;;;;;9.58;71.27;100302.34;6187096;28;20058;-71
2023/10/09 15:05:34;;;;;;;14.10;5.97;;;;;;;9.71;71.96;100296.47;6188248;28;20410;-71
2023/10/09 15:08:35;;;;;;;22.92;8.38;;;;;;;9.62;70.88;100270.00;6194297;28;20082;-71
2023/10/09 15:11:38;;;;;;;11.93;6.55;;;;;;;9.71;70.34;100280.84;6193968;28;20459;-72
2023/10/09 15:14:39;;;;;;;10.05;5.18;;;;;;;9.74;70.47;100296.28;6195137;28;20050;-71
2023/10/09 15:17:43;;;;;;;6.93;3.60;;;;;;;9.66;70.44;100302.78;6193531;28;20561;-72
2023/10/09 15:20:45;;;;;;;11.15;4.00;;;;;;;9.59;71.23;100295.34;6195172;28;20046;-72
2023/10/09 15:23:46;;;;;;;15.98;5.22;;;;;;;9.54;71.90;100281.75;6193434;28;20103;-72
2023/10/09 15:26:53;;;;;;;14.07;6.47;;;;;;;9.63;70.94;100289.06;6193602;28;20515;-71
2023/10/09 15:29:55;;;;;;;15.60;6.35;;;;;;;9.55;69.25;100291.22;6194369;28;20494;-71
2023/10/09 15:32:58;;;;;;;29.37;13.57;;;;;;;9.53;70.67;100299.13;6189598;28;20064;-72
2023/10/09 15:36:02;;;;;;;14.55;8.93;;;;;;;9.37;68.78;100301.69;6189123;28;20272;-72
2023/10/09 15:39:03;;;;;;;21.10;10.18;;;;;;;9.42;69.62;100302.28;6193783;28;20050;-72
2023/10/09 15:42:08;;;;;;;14.90;6.60;;;;;;;9.40;69.19;100306.75;6194622;28;20134;-72
2023/10/09 15:45:09;;;;;;;23.35;10.80;;;;;;;9.35;68.87;100308.75;6194751;28;20057;-72
2023/10/09 15:48:11;;;;;;;12.20;6.63;;;;;;;9.34;69.87;100278.41;6194621;28;20052;-72
2023/10/09 15:51:16;;;;;;;15.10;8.35;;;;;;;9.35;70.40;100282.72;6193853;28;20058;-72
2023/10/09 15:54:19;;;;;;;18.58;9.10;;;;;;;9.31;70.69;100283.78;6192673;28;20057;-71
2023/10/09 15:57:24;;;;;;;12.43;7.00;;;;;;;9.34;70.83;100290.59;6183394;28;20422;-71
2023/10/09 16:00:33;;;;;;;10.75;5.20;;;;;;;9.23;71.88;100276.38;6170276;28;20050;-72
2023/10/09 16:03:34;;;;;;;12.15;3.80;;;;;;;9.36;71.84;100283.53;6169062;28;20499;-71
2023/10/09 16:06:35;;;;;;;6.07;3.15;;;;;;;9.40;71.67;100283.31;6170042;28;20051;-71
2023/10/09 16:09:38;;;;;;;8.88;4.15;;;;;;;9.39;72.62;100289.44;6184258;28;20085;-72
2023/10/09 16:12:43;;;;;;;19.58;13.65;;;;;;;9.44;72.21;100284.81;6194635;28;20054;-71
2023/10/09 16:15:44;;;;;;;13.98;6.57;;;;;;;9.38;73.42;100295.56;6193038;28;20391;-71
2023/10/09 16:18:47;;;;;;;11.38;5.05;;;;;;;9.41;72.75;100291.94;6193870;28;20054;-71
2023/10/09 16:21:49;;;;;;;10.10;5.85;;;;;;;9.28;72.16;100292.59;6194565;28;20517;-72
2023/10/09 16:24:55;;;;;;;8.43;4.72;;;;;;;9.37;72.84;100280.00;6193056;28;20054;-71